Rechercher aéroport 
image banner adimage banner adimage banner ad
image banner ad

42CL - Costa Mesa Police Department

Situé à Costa Mesa, United States

ICAO - 42CL, IATA -

Données fournies par Airmate  

Information générale

Coordonnées: N33°39'46" W117°54'14"
Élévation : 60 feet MSL.
Variation magnétique : 14° East
Voir autres Aéroports à California

Données opérationnelles

Special qualification required
Heure actuelle UTC:
Heure actuelle locale:
METAR: KSNA 262353Z 22006KT 10SM OVC022 24/17 A2993 RMK AO2 SLP134 T02390172 10244 20222 56005
TAF: KSNA 262335Z 2700/2724 22009KT P6SM OVC020 FM270400 24003KT P6SM OVC015 FM271300 00000KT 6SM HZ OVC007 FM271900 23008KT P6SM SCT015
Voir NOTAMs / SUP AIP / TFR affectant cet aéroport [VIEW]
Fréquences de communication: [VIEW]

Pistes:

Coordonnées de l'aéroport

Adresse: Costa Mesa United States

Vue satellite de 42CL